sensor_id;sensor_type;location;lat;lon;timestamp;pressure;altitude;pressure_sealevel;temperature;humidity
48792;BME280;34587;48.816;9.420;2023-02-23T00:01:57;98466.06;;;6.82;86.86
48792;BME280;34587;48.816;9.420;2023-02-23T00:04:29;98469.34;;;6.95;86.75
48792;BME280;34587;48.816;9.420;2023-02-23T00:06:55;98465.97;;;6.91;86.63
48792;BME280;34587;48.816;9.420;2023-02-23T00:09:20;98467.72;;;6.86;86.75
48792;BME280;34587;48.816;9.420;2023-02-23T00:11:55;98471.22;;;6.76;87.78
48792;BME280;34587;48.816;9.420;2023-02-23T00:14:24;98469.53;;;6.75;87.80
48792;BME280;34587;48.816;9.420;2023-02-23T00:16:51;98472.78;;;6.95;86.19
48792;BME280;34587;48.816;9.420;2023-02-23T00:19:18;98466.00;;;6.88;86.39
48792;BME280;34587;48.816;9.420;2023-02-23T00:21:43;98462.53;;;6.92;86.66
48792;BME280;34587;48.816;9.420;2023-02-23T00:24:11;98462.53;;;6.92;86.27
48792;BME280;34587;48.816;9.420;2023-02-23T00:26:39;98459.97;;;6.86;86.65
48792;BME280;34587;48.816;9.420;2023-02-23T00:29:24;98463.28;;;7.01;86.51
48792;BME280;34587;48.816;9.420;2023-02-23T00:31:50;98460.72;;;7.01;86.42
48792;BME280;34587;48.816;9.420;2023-02-23T00:34:18;98462.38;;;7.08;86.20
48792;BME280;34587;48.816;9.420;2023-02-23T00:36:52;98459.88;;;7.02;86.47
48792;BME280;34587;48.816;9.420;2023-02-23T00:39:19;98456.56;;;6.86;86.88
48792;BME280;34587;48.816;9.420;2023-02-23T00:41:50;98458.28;;;6.87;87.15
48792;BME280;34587;48.816;9.420;2023-02-23T00:44:20;98454.06;;;6.78;87.56
48792;BME280;34587;48.816;9.420;2023-02-23T00:46:47;98457.44;;;6.83;88.10
48792;BME280;34587;48.816;9.420;2023-02-23T00:49:16;98457.41;;;6.89;87.37
48792;BME280;34587;48.816;9.420;2023-02-23T00:51:41;98456.38;;;7.07;86.81
48792;BME280;34587;48.816;9.420;2023-02-23T00:54:10;98458.84;;;7.21;85.22
48792;BME280;34587;48.816;9.420;2023-02-23T00:56:37;98455.63;;;6.98;85.90
48792;BME280;34587;48.816;9.420;2023-02-23T00:59:03;98459.84;;;7.05;85.93
48792;BME280;34587;48.816;9.420;2023-02-23T05:16:15;98423.03;;;6.90;97.09
48792;BME280;34587;48.816;9.420;2023-02-23T05:18:41;98425.63;;;6.90;97.23
48792;BME280;34587;48.816;9.420;2023-02-23T05:21:07;98424.03;;;6.79;97.72
48792;BME280;34587;48.816;9.420;2023-02-23T05:23:34;98426.63;;;6.74;98.31
48792;BME280;34587;48.816;9.420;2023-02-23T05:26:04;98428.25;;;6.87;97.74
48792;BME280;34587;48.816;9.420;2023-02-23T05:28:31;98431.66;;;6.86;97.79
48792;BME280;34587;48.816;9.420;2023-02-23T05:30:56;98430.03;;;6.79;98.03
48792;BME280;34587;48.816;9.420;2023-02-23T05:33:21;98427.38;;;6.88;97.70
48792;BME280;34587;48.816;9.420;2023-02-23T05:35:47;98426.50;;;6.86;96.59
48792;BME280;34587;48.816;9.420;2023-02-23T05:38:13;98426.69;;;6.68;97.43
48792;BME280;34587;48.816;9.420;2023-02-23T05:40:38;98427.41;;;6.81;97.99
48792;BME280;34587;48.816;9.420;2023-02-23T05:43:04;98430.03;;;6.79;97.28
48792;BME280;34587;48.816;9.420;2023-02-23T05:45:29;98434.25;;;6.88;97.68
48792;BME280;34587;48.816;9.420;2023-02-23T05:47:55;98436.88;;;6.80;97.18
48792;BME280;34587;48.816;9.420;2023-02-23T05:50:20;98430.03;;;6.76;97.43
48792;BME280;34587;48.816;9.420;2023-02-23T05:52:45;98437.69;;;6.87;98.06
48792;BME280;34587;48.816;9.420;2023-02-23T05:55:10;98435.91;;;6.90;97.59
48792;BME280;34587;48.816;9.420;2023-02-23T05:57:37;98435.09;;;6.85;97.27
48792;BME280;34587;48.816;9.420;2023-02-23T06:00:04;98435.06;;;6.91;97.79
48792;BME280;34587;48.816;9.420;2023-02-23T06:02:30;98434.22;;;6.89;97.25
48792;BME280;34587;48.816;9.420;2023-02-23T06:04:55;98435.06;;;6.91;97.14
48792;BME280;34587;48.816;9.420;2023-02-23T06:07:20;98437.63;;;6.90;97.39
48792;BME280;34587;48.816;9.420;2023-02-23T06:09:46;98438.53;;;6.87;98.10
48792;BME280;34587;48.816;9.420;2023-02-23T06:12:11;98440.16;;;6.98;97.78
48792;BME280;34587;48.816;9.420;2023-02-23T06:14:36;98441.78;;;7.05;96.88
48792;BME280;34587;48.816;9.420;2023-02-23T06:17:02;98445.31;;;6.98;96.98
48792;BME280;34587;48.816;9.420;2023-02-23T06:19:27;98442.72;;;6.96;97.62
48792;BME280;34587;48.816;9.420;2023-02-23T06:21:52;98451.34;;;6.97;97.57
48792;BME280;34587;48.816;9.420;2023-02-23T06:24:18;98452.25;;;6.89;98.28
48792;BME280;34587;48.816;9.420;2023-02-23T06:26:44;98457.34;;;6.95;97.72
48792;BME280;34587;48.816;9.420;2023-02-23T06:29:09;98453.03;;;6.98;98.02
48792;BME280;34587;48.816;9.420;2023-02-23T06:31:36;98458.22;;;6.93;97.72
48792;BME280;34587;48.816;9.420;2023-02-23T06:34:01;98461.63;;;6.98;98.40
48792;BME280;34587;48.816;9.420;2023-02-23T06:36:27;98461.72;;;6.87;98.37
48792;BME280;34587;48.816;9.420;2023-02-23T06:38:57;98459.91;;;6.97;98.32
48792;BME280;34587;48.816;9.420;2023-02-23T06:41:24;98465.94;;;6.94;98.55
48792;BME280;34587;48.816;9.420;2023-02-23T06:43:49;98463.41;;;6.91;98.42
48792;BME280;34587;48.816;9.420;2023-02-23T06:46:15;98468.47;;;6.99;98.57
48792;BME280;34587;48.816;9.420;2023-02-23T06:48:40;98461.53;;;7.07;98.12
48792;BME280;34587;48.816;9.420;2023-02-23T06:51:06;98464.97;;;7.05;98.02
48792;BME280;34587;48.816;9.420;2023-02-23T06:53:32;98465.00;;;7.03;98.39
48792;BME280;34587;48.816;9.420;2023-02-23T06:55:58;98468.47;;;6.99;98.62
48792;BME280;34587;48.816;9.420;2023-02-23T06:58:23;98474.50;;;6.95;99.44
48792;BME280;34587;48.816;9.420;2023-02-23T07:00:49;98467.59;;;7.02;98.95
48792;BME280;34587;48.816;9.420;2023-02-23T07:03:15;98476.22;;;6.98;98.43
48792;BME280;34587;48.816;9.420;2023-02-23T07:05:40;98481.31;;;7.01;98.95
48792;BME280;34587;48.816;9.420;2023-02-23T07:08:06;98485.72;;;6.92;98.70
48792;BME280;34587;48.816;9.420;2023-02-23T07:10:32;98491.63;;;7.04;98.86
48792;BME280;34587;48.816;9.420;2023-02-23T07:12:57;98489.03;;;7.04;98.53
48792;BME280;34587;48.816;9.420;2023-02-23T07:15:23;98488.16;;;7.08;98.67
48792;BME280;34587;48.816;9.420;2023-02-23T07:17:49;98486.47;;;7.04;98.77
48792;BME280;34587;48.816;9.420;2023-02-23T07:20:17;98482.22;;;6.98;99.09
48792;BME280;34587;48.816;9.420;2023-02-23T07:22:42;98488.13;;;7.11;99.12
48792;BME280;34587;48.816;9.420;2023-02-23T07:25:08;98491.59;;;7.07;98.55
48792;BME280;34587;48.816;9.420;2023-02-23T07:27:34;98493.28;;;7.11;99.44
48792;BME280;34587;48.816;9.420;2023-02-23T07:30:00;98495.00;;;7.12;98.94
48792;BME280;34587;48.816;9.420;2023-02-23T07:32:27;98498.44;;;7.11;99.36
48792;BME280;34587;48.816;9.420;2023-02-23T07:34:52;98495.88;;;7.08;99.14
48792;BME280;34587;48.816;9.420;2023-02-23T07:37:17;98500.06;;;7.18;99.68
48792;BME280;34587;48.816;9.420;2023-02-23T07:39:43;98502.69;;;7.16;100.00
48792;BME280;34587;48.816;9.420;2023-02-23T07:42:08;98501.91;;;7.07;100.00
48792;BME280;34587;48.816;9.420;2023-02-23T07:44:33;98501.81;;;7.16;100.00
48792;BME280;34587;48.816;9.420;2023-02-23T07:46:59;98501.91;;;7.07;100.00
48792;BME280;34587;48.816;9.420;2023-02-23T07:49:24;98502.63;;;7.21;100.00
48792;BME280;34587;48.816;9.420;2023-02-23T07:51:49;98501.53;;;7.43;99.24
48792;BME280;34587;48.816;9.420;2023-02-23T07:54:15;98492.84;;;7.54;97.76
48792;BME280;34587;48.816;9.420;2023-02-23T07:56:40;98496.28;;;7.54;96.66
48792;BME280;34587;48.816;9.420;2023-02-23T07:59:06;98499.63;;;7.64;96.90
48792;BME280;34587;48.816;9.420;2023-02-23T08:01:31;98502.19;;;7.64;96.73
48792;BME280;34587;48.816;9.420;2023-02-23T08:03:56;98503.84;;;7.71;97.25
48792;BME280;34587;48.816;9.420;2023-02-23T08:06:22;98507.13;;;7.85;95.96
48792;BME280;34587;48.816;9.420;2023-02-23T08:08:47;98496.88;;;7.79;95.81
48792;BME280;34587;48.816;9.420;2023-02-23T08:11:12;98506.16;;;7.95;95.03
48792;BME280;34587;48.816;9.420;2023-02-23T08:13:38;98506.06;;;8.02;93.45
48792;BME280;34587;48.816;9.420;2023-02-23T08:16:03;98509.31;;;8.16;92.76
48792;BME280;34587;48.816;9.420;2023-02-23T08:18:29;98507.63;;;8.15;92.51
48792;BME280;34587;48.816;9.420;2023-02-23T08:21:01;98510.25;;;8.13;92.45
48792;BME280;34587;48.816;9.420;2023-02-23T08:23:31;98507.59;;;8.18;92.23
48792;BME280;34587;48.816;9.420;2023-02-23T08:25:57;98506.75;;;8.17;92.92
48792;BME280;34587;48.816;9.420;2023-02-23T08:28:24;98515.16;;;8.32;92.66
48792;BME280;34587;48.816;9.420;2023-02-23T08:30:49;98511.72;;;8.33;92.64
48792;BME280;34587;48.816;9.420;2023-02-23T08:33:15;98512.47;;;8.42;92.50
48792;BME280;34587;48.816;9.420;2023-02-23T08:35:40;98509.75;;;8.52;92.16
48792;BME280;34587;48.816;9.420;2023-02-23T08:38:05;98509.53;;;8.65;91.40
48792;BME280;34587;48.816;9.420;2023-02-23T08:40:31;98502.72;;;8.63;91.23
48792;BME280;34587;48.816;9.420;2023-02-23T08:42:57;98508.66;;;8.68;90.44
48792;BME280;34587;48.816;9.420;2023-02-23T08:45:22;98511.84;;;8.85;90.32
48792;BME280;34587;48.816;9.420;2023-02-23T08:47:47;98515.94;;;8.98;89.63
48792;BME280;34587;48.816;9.420;2023-02-23T08:50:13;98508.03;;;9.08;89.42
48792;BME280;34587;48.816;9.420;2023-02-23T08:52:39;98504.47;;;9.15;87.65
48792;BME280;34587;48.816;9.420;2023-02-23T08:55:05;98508.03;;;9.08;87.57
48792;BME280;34587;48.816;9.420;2023-02-23T08:57:34;98516.84;;;8.94;88.53
48792;BME280;34587;48.816;9.420;2023-02-23T09:00:00;98509.94;;;8.96;88.61
48792;BME280;34587;48.816;9.420;2023-02-23T09:02:26;98513.41;;;8.95;88.59
48792;BME280;34587;48.816;9.420;2023-02-23T09:04:52;98508.19;;;8.98;89.09
48792;BME280;34587;48.816;9.420;2023-02-23T09:07:20;98514.41;;;8.87;89.45
48792;BME280;34587;48.816;9.420;2023-02-23T09:09:53;98513.31;;;9.01;89.41
48792;BME280;34587;48.816;9.420;2023-02-23T09:12:18;98515.78;;;9.09;89.12
48792;BME280;34587;48.816;9.420;2023-02-23T09:14:43;98513.94;;;9.16;89.30
48792;BME280;34587;48.816;9.420;2023-02-23T09:17:08;98518.72;;;9.37;88.39
48792;BME280;34587;48.816;9.420;2023-02-23T09:19:34;98517.47;;;9.60;86.82
48792;BME280;34587;48.816;9.420;2023-02-23T09:21:59;98520.19;;;9.53;85.95
48792;BME280;34587;48.816;9.420;2023-02-23T09:24:24;98517.59;;;9.53;87.57
48792;BME280;34587;48.816;9.420;2023-02-23T09:26:50;98518.56;;;9.48;87.14
48792;BME280;34587;48.816;9.420;2023-02-23T09:29:17;98515.63;;;9.68;86.82
48792;BME280;34587;48.816;9.420;2023-02-23T09:31:42;98515.16;;;9.44;86.37
48792;BME280;34587;48.816;9.420;2023-02-23T09:34:08;98514.84;;;9.63;87.32
48792;BME280;34587;48.816;9.420;2023-02-23T09:36:34;98515.63;;;9.68;87.37
48792;BME280;34587;48.816;9.420;2023-02-23T09:38:59;98513.78;;;9.73;86.92
48792;BME280;34587;48.816;9.420;2023-02-23T09:46:52;98515.44;;;10.20;85.47
48792;BME280;34587;48.816;9.420;2023-02-23T09:49:23;98506.72;;;10.26;84.80
48792;BME280;34587;48.816;9.420;2023-02-23T09:51:55;98510.06;;;10.31;83.86
48792;BME280;34587;48.816;9.420;2023-02-23T09:54:25;98512.19;;;10.52;83.15
48792;BME280;34587;48.816;9.420;2023-02-23T09:56:52;98508.03;;;10.84;81.35
48792;BME280;34587;48.816;9.420;2023-02-23T09:59:20;98508.44;;;10.66;81.36
48792;BME280;34587;48.816;9.420;2023-02-23T10:04:24;98507.75;;;10.58;83.38
48792;BME280;34587;48.816;9.420;2023-02-23T10:12:14;98511.34;;;10.89;82.40
48792;BME280;34587;48.816;9.420;2023-02-23T10:17:37;98518.19;;;11.62;78.70
48792;BME280;34587;48.816;9.420;2023-02-23T10:20:26;98508.25;;;12.10;76.14
48792;BME280;34587;48.816;9.420;2023-02-23T10:22:56;98501.44;;;12.64;73.92
48792;BME280;34587;48.816;9.420;2023-02-23T10:25:29;98498.50;;;13.55;70.82
48792;BME280;34587;48.816;9.420;2023-02-23T10:27:56;98493.50;;;13.74;69.20
48792;BME280;34587;48.816;9.420;2023-02-23T10:30:26;98492.66;;;13.74;68.99
48792;BME280;34587;48.816;9.420;2023-02-23T10:35:27;98494.00;;;14.31;66.86
48792;BME280;34587;48.816;9.420;2023-02-23T10:37:53;98494.28;;;14.92;65.17
48792;BME280;34587;48.816;9.420;2023-02-23T10:40:25;98494.34;;;14.69;64.92
48792;BME280;34587;48.816;9.420;2023-02-23T10:42:53;98495.66;;;14.57;65.37
48792;BME280;34587;48.816;9.420;2023-02-23T10:45:21;98499.69;;;14.42;65.23
48792;BME280;34587;48.816;9.420;2023-02-23T10:47:54;98500.25;;;14.50;64.92
48792;BME280;34587;48.816;9.420;2023-02-23T10:50:21;98501.72;;;14.10;66.61
48792;BME280;34587;48.816;9.420;2023-02-23T10:52:48;98498.44;;;14.74;64.51
48792;BME280;34587;48.816;9.420;2023-02-23T10:55:24;98497.75;;;14.71;62.62
48792;BME280;34587;48.816;9.420;2023-02-23T10:58:16;98500.28;;;14.94;62.54
48792;BME280;34587;48.816;9.420;2023-02-23T11:00:54;98504.38;;;15.42;61.16
48792;BME280;34587;48.816;9.420;2023-02-23T11:03:43;98502.09;;;14.92;61.54
48792;BME280;34587;48.816;9.420;2023-02-23T11:06:38;98505.63;;;14.91;61.54
48792;BME280;34587;48.816;9.420;2023-02-23T11:09:27;98498.41;;;14.76;62.45
48792;BME280;34587;48.816;9.420;2023-02-23T11:12:03;98498.22;;;14.58;63.45
48792;BME280;34587;48.816;9.420;2023-02-23T11:14:37;98493.97;;;14.78;62.67
48792;BME280;34587;48.816;9.420;2023-02-23T11:17:02;98492.66;;;15.52;60.29
48792;BME280;34587;48.816;9.420;2023-02-23T11:19:35;98494.25;;;15.77;59.45
48792;BME280;34587;48.816;9.420;2023-02-23T11:22:03;98492.25;;;15.21;60.94
48792;BME280;34587;48.816;9.420;2023-02-23T11:24:38;98494.31;;;14.00;63.79
48792;BME280;34587;48.816;9.420;2023-02-23T11:27:15;98487.16;;;14.28;64.59
48792;BME280;34587;48.816;9.420;2023-02-23T11:29:44;98479.34;;;14.28;62.78
48792;BME280;34587;48.816;9.420;2023-02-23T11:32:20;98484.16;;;14.15;62.76
48792;BME280;34587;48.816;9.420;2023-02-23T11:34:47;98486.09;;;14.10;63.90
48792;BME280;34587;48.816;9.420;2023-02-23T11:39:55;98467.84;;;13.87;64.22
48792;BME280;34587;48.816;9.420;2023-02-23T11:42:24;98466.94;;;13.65;63.76
48792;BME280;34587;48.816;9.420;2023-02-23T11:45:04;98465.66;;;13.51;64.73
48792;BME280;34587;48.816;9.420;2023-02-23T11:47:32;98466.97;;;13.88;63.90
48792;BME280;34587;48.816;9.420;2023-02-23T11:49:59;98463.03;;;14.00;62.99
48792;BME280;34587;48.816;9.420;2023-02-23T11:52:26;98458.44;;;14.06;63.01
48792;BME280;34587;48.816;9.420;2023-02-23T11:54:56;98464.91;;;13.96;62.88
48792;BME280;34587;48.816;9.420;2023-02-23T11:57:25;98453.31;;;14.05;63.28
48792;BME280;34587;48.816;9.420;2023-02-23T11:59:52;98451.94;;;14.40;61.57
48792;BME280;34587;48.816;9.420;2023-02-23T12:04:48;98446.94;;;15.01;59.80
48792;BME280;34587;48.816;9.420;2023-02-23T12:10:17;98444.38;;;15.61;55.69
48792;BME280;34587;48.816;9.420;2023-02-23T12:12:51;98446.44;;;15.75;55.29
48792;BME280;34587;48.816;9.420;2023-02-23T12:15:25;98440.38;;;15.93;53.74
48792;BME280;34587;48.816;9.420;2023-02-23T12:17:57;98439.56;;;16.30;52.75
48792;BME280;34587;48.816;9.420;2023-02-23T12:20:28;98434.53;;;16.26;53.02
48792;BME280;34587;48.816;9.420;2023-02-23T12:22:58;98434.38;;;16.29;53.04
48792;BME280;34587;48.816;9.420;2023-02-23T12:25:37;98426.63;;;16.08;52.84
48792;BME280;34587;48.816;9.420;2023-02-23T12:31:05;98428.72;;;15.61;52.53
48792;BME280;34587;48.816;9.420;2023-02-23T12:33:43;98418.28;;;16.00;52.62
48792;BME280;34587;48.816;9.420;2023-02-23T12:36:29;98418.34;;;15.80;52.63
48792;BME280;34587;48.816;9.420;2023-02-23T12:39:02;98418.22;;;15.62;52.67
48792;BME280;34587;48.816;9.420;2023-02-23T12:41:50;98419.81;;;15.26;53.98
48792;BME280;34587;48.816;9.420;2023-02-23T12:44:30;98421.09;;;15.36;54.17
48792;BME280;34587;48.816;9.420;2023-02-23T12:47:03;98428.78;;;14.98;55.51
48792;BME280;34587;48.816;9.420;2023-02-23T12:49:44;98419.66;;;15.08;55.85
48792;BME280;34587;48.816;9.420;2023-02-23T12:52:19;98423.34;;;15.04;55.24
48792;BME280;34587;48.816;9.420;2023-02-23T12:54:45;98407.53;;;15.28;54.77
48792;BME280;34587;48.816;9.420;2023-02-23T13:03:14;98398.22;;;16.19;50.49
48792;BME280;34587;48.816;9.420;2023-02-23T13:11:19;98405.72;;;15.09;53.64
48792;BME280;34587;48.816;9.420;2023-02-23T13:16:51;98404.59;;;14.52;55.04
48792;BME280;34587;48.816;9.420;2023-02-23T13:21:51;98399.50;;;14.49;55.05
48792;BME280;34587;48.816;9.420;2023-02-23T13:24:23;98406.50;;;14.47;55.35
48792;BME280;34587;48.816;9.420;2023-02-23T13:29:45;98401.53;;;14.41;54.94
48792;BME280;34587;48.816;9.420;2023-02-23T13:32:23;98397.81;;;14.48;54.39
48792;BME280;34587;48.816;9.420;2023-02-23T13:34:51;98405.22;;;14.13;55.88
48792;BME280;34587;48.816;9.420;2023-02-23T13:37:20;98393.63;;;14.21;56.20
48792;BME280;34587;48.816;9.420;2023-02-23T13:46:12;98387.16;;;14.31;55.73
48792;BME280;34587;48.816;9.420;2023-02-23T13:48:50;98387.97;;;14.33;56.71
48792;BME280;34587;48.816;9.420;2023-02-23T13:51:31;98382.84;;;14.30;56.72
48792;BME280;34587;48.816;9.420;2023-02-23T13:56:29;98385.34;;;14.97;54.68
48792;BME280;34587;48.816;9.420;2023-02-23T13:59:01;98382.91;;;15.14;56.08
48792;BME280;34587;48.816;9.420;2023-02-23T14:01:43;98390.91;;;15.10;56.13
48792;BME280;34587;48.816;9.420;2023-02-23T14:04:23;98385.16;;;14.59;56.37
48792;BME280;34587;48.816;9.420;2023-02-23T14:06:52;98389.06;;;15.12;54.88
48792;BME280;34587;48.816;9.420;2023-02-23T14:09:22;98389.25;;;14.87;55.89
48792;BME280;34587;48.816;9.420;2023-02-23T14:20:14;98377.78;;;14.27;56.57
48792;BME280;34587;48.816;9.420;2023-02-23T14:28:11;98375.13;;;14.50;54.26
48792;BME280;34587;48.816;9.420;2023-02-23T14:30:49;98374.63;;;14.62;52.53
48792;BME280;34587;48.816;9.420;2023-02-23T14:33:37;98373.28;;;14.08;55.26
48792;BME280;34587;48.816;9.420;2023-02-23T14:36:28;98381.13;;;14.07;54.09
48792;BME280;34587;48.816;9.420;2023-02-23T14:39:01;98368.88;;;13.87;54.65
48792;BME280;34587;48.816;9.420;2023-02-23T14:44:14;98383.72;;;13.61;57.23
48792;BME280;34587;48.816;9.420;2023-02-23T14:46:58;98384.34;;;13.45;57.41
48792;BME280;34587;48.816;9.420;2023-02-23T14:49:26;98377.66;;;13.61;56.91
48792;BME280;34587;48.816;9.420;2023-02-23T14:51:54;98382.06;;;13.35;57.00
48792;BME280;34587;48.816;9.420;2023-02-23T14:54:33;98381.00;;;13.41;58.24
48792;BME280;34587;48.816;9.420;2023-02-23T14:57:02;98377.09;;;13.53;58.50
48792;BME280;34587;48.816;9.420;2023-02-23T14:59:35;98391.50;;;13.38;59.39
48792;BME280;34587;48.816;9.420;2023-02-23T15:02:07;98376.88;;;13.35;60.58
48792;BME280;34587;48.816;9.420;2023-02-23T15:04:33;98377.06;;;13.29;61.15
48792;BME280;34587;48.816;9.420;2023-02-23T15:07:02;98378.16;;;13.47;60.73
48792;BME280;34587;48.816;9.420;2023-02-23T15:09:32;98379.16;;;13.43;60.86
48792;BME280;34587;48.816;9.420;2023-02-23T15:12:05;98388.34;;;13.30;60.46
48792;BME280;34587;48.816;9.420;2023-02-23T15:14:36;98388.63;;;13.46;60.52
48792;BME280;34587;48.816;9.420;2023-02-23T15:17:03;98389.91;;;13.59;60.41
48792;BME280;34587;48.816;9.420;2023-02-23T15:19:32;98387.41;;;13.79;59.72
48792;BME280;34587;48.816;9.420;2023-02-23T15:21:59;98385.81;;;13.75;59.85
48792;BME280;34587;48.816;9.420;2023-02-23T15:24:30;98384.84;;;13.78;59.57
48792;BME280;34587;48.816;9.420;2023-02-23T15:26:55;98390.41;;;13.69;59.34
48792;BME280;34587;48.816;9.420;2023-02-23T15:29:30;98389.09;;;13.80;59.34
48792;BME280;34587;48.816;9.420;2023-02-23T15:32:09;98380.69;;;13.96;58.97
48792;BME280;34587;48.816;9.420;2023-02-23T15:34:39;98390.88;;;14.02;58.88
48792;BME280;34587;48.816;9.420;2023-02-23T15:37:19;98388.16;;;13.83;58.87
48792;BME280;34587;48.816;9.420;2023-02-23T15:42:16;98394.91;;;13.40;60.62
48792;BME280;34587;48.816;9.420;2023-02-23T15:44:42;98401.66;;;12.94;61.40
48792;BME280;34587;48.816;9.420;2023-02-23T15:47:19;98395.28;;;12.78;62.29
48792;BME280;34587;48.816;9.420;2023-02-23T15:49:46;98401.38;;;12.77;62.79
48792;BME280;34587;48.816;9.420;2023-02-23T15:52:19;98401.00;;;12.61;63.33
48792;BME280;34587;48.816;9.420;2023-02-23T15:54:55;98395.78;;;12.63;63.87
48792;BME280;34587;48.816;9.420;2023-02-23T15:57:32;98397.88;;;12.51;64.18
48792;BME280;34587;48.816;9.420;2023-02-23T16:00:01;98395.38;;;12.48;63.74
48792;BME280;34587;48.816;9.420;2023-02-23T16:02:30;98395.31;;;12.50;64.11
48792;BME280;34587;48.816;9.420;2023-02-23T16:04:55;98401.56;;;12.44;64.49
48792;BME280;34587;48.816;9.420;2023-02-23T16:07:26;98405.34;;;12.34;64.42
48792;BME280;34587;48.816;9.420;2023-02-23T16:10:21;98401.94;;;12.32;64.62
48792;BME280;34587;48.816;9.420;2023-02-23T16:12:49;98394.75;;;12.12;65.31
48792;BME280;34587;48.816;9.420;2023-02-23T16:15:24;98405.91;;;12.16;65.48
48792;BME280;34587;48.816;9.420;2023-02-23T16:17:55;98397.50;;;12.07;65.78
48792;BME280;34587;48.816;9.420;2023-02-23T16:20:46;98404.16;;;12.16;65.65
48792;BME280;34587;48.816;9.420;2023-02-23T16:25:41;98398.81;;;11.93;66.44
48792;BME280;34587;48.816;9.420;2023-02-23T16:28:12;98405.88;;;11.88;67.24
48792;BME280;34587;48.816;9.420;2023-02-23T16:30:42;98404.50;;;11.74;68.35
48792;BME280;34587;48.816;9.420;2023-02-23T16:35:48;98405.25;;;11.78;68.38
48792;BME280;34587;48.816;9.420;2023-02-23T16:38:41;98409.03;;;11.68;69.33
48792;BME280;34587;48.816;9.420;2023-02-23T16:41:15;98405.84;;;11.58;70.32
48792;BME280;34587;48.816;9.420;2023-02-23T16:43:42;98404.34;;;11.49;70.16
48792;BME280;34587;48.816;9.420;2023-02-23T16:46:08;98406.25;;;11.43;71.03
48792;BME280;34587;48.816;9.420;2023-02-23T16:48:33;98407.09;;;11.43;70.63
48792;BME280;34587;48.816;9.420;2023-02-23T16:50:59;98402.09;;;11.37;70.91
48792;BME280;34587;48.816;9.420;2023-02-23T16:53:24;98401.28;;;11.35;71.06
48792;BME280;34587;48.816;9.420;2023-02-23T16:55:51;98403.75;;;11.40;70.77
48792;BME280;34587;48.816;9.420;2023-02-23T16:58:22;98409.22;;;11.29;71.29
48792;BME280;34587;48.816;9.420;2023-02-23T17:00:49;98405.97;;;11.21;71.83
48792;BME280;34587;48.816;9.420;2023-02-23T17:03:22;98411.03;;;11.27;72.00
48792;BME280;34587;48.816;9.420;2023-02-23T17:05:48;98406.69;;;11.27;71.86
48792;BME280;34587;48.816;9.420;2023-02-23T17:08:13;98408.44;;;11.27;71.85
48792;BME280;34587;48.816;9.420;2023-02-23T17:10:39;98413.94;;;11.15;72.55
48792;BME280;34587;48.816;9.420;2023-02-23T17:13:09;98414.16;;;11.05;72.70
48792;BME280;34587;48.816;9.420;2023-02-23T17:15:40;98412.63;;;10.98;72.82
48792;BME280;34587;48.816;9.420;2023-02-23T17:18:06;98419.66;;;10.93;73.51
48792;BME280;34587;48.816;9.420;2023-02-23T17:20:31;98418.03;;;10.89;73.25
48792;BME280;34587;48.816;9.420;2023-02-23T17:22:59;98420.19;;;11.06;72.96
48792;BME280;34587;48.816;9.420;2023-02-23T17:25:25;98413.13;;;11.13;73.05
48792;BME280;34587;48.816;9.420;2023-02-23T17:27:55;98420.31;;;11.01;73.39
48792;BME280;34587;48.816;9.420;2023-02-23T17:30:22;98414.00;;;11.12;72.62
48792;BME280;34587;48.816;9.420;2023-02-23T17:32:48;98419.28;;;11.09;73.39
48792;BME280;34587;48.816;9.420;2023-02-23T17:35:15;98428.56;;;11.17;73.85
48792;BME280;34587;48.816;9.420;2023-02-23T17:37:40;98421.09;;;11.05;74.31
48792;BME280;34587;48.816;9.420;2023-02-23T17:40:10;98429.66;;;11.09;73.97
48792;BME280;34587;48.816;9.420;2023-02-23T17:42:36;98427.41;;;10.95;74.96
48792;BME280;34587;48.816;9.420;2023-02-23T17:45:03;98427.69;;;11.17;73.80
48792;BME280;34587;48.816;9.420;2023-02-23T17:47:30;98430.94;;;11.25;74.20
48792;BME280;34587;48.816;9.420;2023-02-23T17:50:00;98431.78;;;11.25;73.53
48792;BME280;34587;48.816;9.420;2023-02-23T17:52:26;98429.81;;;11.02;74.27
48792;BME280;34587;48.816;9.420;2023-02-23T17:54:52;98430.03;;;10.93;75.10
48792;BME280;34587;48.816;9.420;2023-02-23T17:57:22;98427.06;;;10.74;76.46
48792;BME280;34587;48.816;9.420;2023-02-23T17:59:47;98427.06;;;10.73;76.36
48792;BME280;34587;48.816;9.420;2023-02-23T18:02:15;98423.72;;;10.68;76.79
48792;BME280;34587;48.816;9.420;2023-02-23T18:04:42;98432.13;;;10.77;77.07
48792;BME280;34587;48.816;9.420;2023-02-23T18:07:07;98435.44;;;10.84;76.46
48792;BME280;34587;48.816;9.420;2023-02-23T18:09:32;98432.84;;;10.84;75.88
48792;BME280;34587;48.816;9.420;2023-02-23T18:11:59;98435.47;;;10.82;76.08
48792;BME280;34587;48.816;9.420;2023-02-23T18:14:24;98439.16;;;10.74;77.26
48792;BME280;34587;48.816;9.420;2023-02-23T18:16:49;98442.91;;;10.61;77.94
48792;BME280;34587;48.816;9.420;2023-02-23T18:19:15;98439.50;;;10.59;77.77
48792;BME280;34587;48.816;9.420;2023-02-23T18:21:40;98436.31;;;10.47;78.69
48792;BME280;34587;48.816;9.420;2023-02-23T18:24:06;98437.25;;;10.45;79.11
48792;BME280;34587;48.816;9.420;2023-02-23T18:26:32;98437.88;;;10.54;78.28
48792;BME280;34587;48.816;9.420;2023-02-23T18:28:57;98443.13;;;10.51;78.86
48792;BME280;34587;48.816;9.420;2023-02-23T18:31:25;98442.44;;;10.43;79.22
48792;BME280;34587;48.816;9.420;2023-02-23T18:33:53;98437.94;;;10.51;78.67
48792;BME280;34587;48.816;9.420;2023-02-23T18:36:21;98441.50;;;10.47;79.17
48792;BME280;34587;48.816;9.420;2023-02-23T18:38:47;98438.31;;;10.35;80.08
48792;BME280;34587;48.816;9.420;2023-02-23T18:41:13;98439.94;;;10.40;79.91
48792;BME280;34587;48.816;9.420;2023-02-23T18:43:38;98438.22;;;10.39;80.07
48792;BME280;34587;48.816;9.420;2023-02-23T18:46:08;98439.66;;;10.52;79.40
48792;BME280;34587;48.816;9.420;2023-02-23T18:48:34;98435.22;;;10.58;79.18
48792;BME280;34587;48.816;9.420;2023-02-23T18:51:01;98430.91;;;10.57;78.91
48792;BME280;34587;48.816;9.420;2023-02-23T18:53:29;98432.81;;;10.48;79.50